Time;durP1;ratioP1;P1;durP2;ratioP2;P2;SDS_P1;SDS_P2;PMS_P1;PMS_P2;Temp;Humidity;BMP_temperature;BMP_pressure;BME280_temperature;BME280_humidity;BME280_pressure;Samples;Min_cycle;Max_cycle;Signal;HPM_P1;HPM_P2
2023/05/30 00:02:21;;;;;;;12.32;5.60;;;;;;;;;;6218935;23;20004;-78
2023/05/30 00:04:47;;;;;;;8.65;5.25;;;;;;;;;;6245865;23;20000;-78
2023/05/30 00:07:14;;;;;;;11.15;5.43;;;;;;;;;;6245912;23;20071;-79
2023/05/30 00:09:41;;;;;;;10.23;4.82;;;;;;;;;;6245967;23;20030;-78
2023/05/30 00:12:07;;;;;;;10.65;5.38;;;;;;;;;;6246043;23;20011;-78
2023/05/30 00:14:36;;;;;;;9.68;5.10;;;;;;;;;;6245787;23;20064;-79
2023/05/30 00:17:02;;;;;;;12.02;5.38;;;;;;;;;;6245577;23;20063;-78
2023/05/30 00:19:28;;;;;;;9.93;5.60;;;;;;;;;;6245680;23;20039;-78
2023/05/30 00:21:55;;;;;;;9.45;5.53;;;;;;;;;;6245714;23;20054;-79
2023/05/30 00:24:22;;;;;;;12.00;5.55;;;;;;;;;;6218805;23;20008;-79
2023/05/30 00:26:48;;;;;;;9.20;5.18;;;;;;;;;;6246340;23;20004;-78
2023/05/30 00:29:15;;;;;;;12.18;5.18;;;;;;;;;;6245571;23;20040;-77
2023/05/30 00:31:41;;;;;;;9.80;5.32;;;;;;;;;;6245517;23;20007;-78
2023/05/30 00:34:07;;;;;;;10.10;5.25;;;;;;;;;;6245585;23;20004;-79
2023/05/30 00:36:34;;;;;;;7.53;4.93;;;;;;;;;;6245756;23;20000;-78
2023/05/30 00:39:00;;;;;;;9.60;5.60;;;;;;;;;;6245626;23;20015;-78
2023/05/30 00:41:27;;;;;;;9.25;5.40;;;;;;;;;;6245330;23;19996;-78
2023/05/30 00:43:53;;;;;;;10.52;5.78;;;;;;;;;;6218472;23;20430;-78
2023/05/30 00:46:20;;;;;;;11.10;5.43;;;;;;;;;;6245425;22;20004;-79
2023/05/30 00:48:46;;;;;;;9.07;5.40;;;;;;;;;;6245505;23;20008;-79
2023/05/30 00:51:12;;;;;;;11.95;5.90;;;;;;;;;;6245512;23;20062;-79
2023/05/30 00:53:41;;;;;;;9.40;5.30;;;;;;;;;;6245707;23;20384;-79
2023/05/30 00:56:07;;;;;;;10.75;5.25;;;;;;;;;;6245287;23;19996;-79
2023/05/30 00:58:33;;;;;;;13.98;6.20;;;;;;;;;;6242722;23;20016;-78
2023/05/30 01:01:01;;;;;;;11.10;5.80;;;;;;;;;;6241908;23;20004;-79
2023/05/30 01:03:32;;;;;;;8.13;5.57;;;;;;;;;;6242035;23;20012;-79
2023/05/30 01:06:03;;;;;;;8.18;5.38;;;;;;;;;;6246833;23;20000;-79
2023/05/30 01:08:29;;;;;;;11.68;5.65;;;;;;;;;;6220422;23;20011;-79
2023/05/30 01:10:59;;;;;;;13.75;5.68;;;;;;;;;;6247451;23;20075;-78
2023/05/30 01:13:33;;;;;;;8.50;5.50;;;;;;;;;;6246999;23;20054;-79
2023/05/30 01:16:08;;;;;;;10.30;5.88;;;;;;;;;;6247195;23;20000;-78
2023/05/30 01:18:41;;;;;;;8.13;5.20;;;;;;;;;;6246819;23;20008;-79
2023/05/30 01:21:10;;;;;;;9.00;5.38;;;;;;;;;;6246870;23;20031;-79
2023/05/30 01:23:45;;;;;;;10.73;5.15;;;;;;;;;;6247310;23;20414;-81
2023/05/30 01:26:27;;;;;;;8.45;5.70;;;;;;;;;;6220338;23;20031;-79
2023/05/30 01:28:55;;;;;;;7.75;5.20;;;;;;;;;;6220090;23;20032;-78
2023/05/30 01:31:23;;;;;;;8.15;5.60;;;;;;;;;;6247295;23;20339;-78
2023/05/30 01:33:50;;;;;;;11.95;5.10;;;;;;;;;;6247341;23;20008;-79
2023/05/30 01:36:16;;;;;;;8.27;5.70;;;;;;;;;;6246704;23;20484;-79
2023/05/30 01:38:42;;;;;;;10.85;6.15;;;;;;;;;;6247118;23;20016;-76
2023/05/30 01:41:16;;;;;;;9.32;5.50;;;;;;;;;;6247235;23;20457;-78
2023/05/30 01:43:54;;;;;;;8.40;5.28;;;;;;;;;;6246928;23;20453;-78
2023/05/30 01:46:37;;;;;;;10.15;5.28;;;;;;;;;;6246799;22;20019;-78
2023/05/30 01:49:21;;;;;;;8.50;5.05;;;;;;;;;;6247179;23;20367;-78
2023/05/30 01:52:07;;;;;;;9.80;5.68;;;;;;;;;;6246921;23;20075;-79
2023/05/30 01:54:34;;;;;;;12.48;5.53;;;;;;;;;;6247088;23;20001;-78
2023/05/30 01:57:06;;;;;;;7.40;4.68;;;;;;;;;;6247002;23;20008;-78
2023/05/30 01:59:33;;;;;;;7.47;5.65;;;;;;;;;;6246912;23;20449;-78
2023/05/30 02:01:59;;;;;;;9.40;6.25;;;;;;;;;;6247129;23;20484;-79
2023/05/30 02:04:25;;;;;;;10.20;5.65;;;;;;;;;;6247080;23;20004;-78
2023/05/30 02:06:51;;;;;;;10.10;5.43;;;;;;;;;;6246882;23;20054;-77
2023/05/30 02:09:18;;;;;;;8.80;5.65;;;;;;;;;;6246812;23;20000;-77
2023/05/30 02:11:44;;;;;;;9.88;5.43;;;;;;;;;;6220247;23;20004;-81
2023/05/30 02:14:10;;;;;;;11.00;5.63;;;;;;;;;;6246431;23;20004;-79
2023/05/30 02:16:36;;;;;;;10.77;5.85;;;;;;;;;;6246910;23;20049;-80
2023/05/30 02:19:03;;;;;;;9.98;5.88;;;;;;;;;;6246811;23;20051;-80
2023/05/30 02:21:29;;;;;;;8.15;5.38;;;;;;;;;;6246661;23;19996;-81
2023/05/30 02:23:55;;;;;;;8.00;5.35;;;;;;;;;;6246814;23;20083;-80
2023/05/30 02:26:21;;;;;;;6.72;5.05;;;;;;;;;;6246709;23;20406;-80
2023/05/30 02:28:47;;;;;;;11.30;5.35;;;;;;;;;;6246798;23;20004;-80
2023/05/30 02:31:14;;;;;;;12.40;5.10;;;;;;;;;;6219895;23;20071;-80
2023/05/30 02:33:40;;;;;;;7.05;5.20;;;;;;;;;;6246715;23;20000;-79
2023/05/30 02:36:08;;;;;;;7.68;5.13;;;;;;;;;;6246780;23;20027;-79
2023/05/30 02:38:34;;;;;;;7.97;5.40;;;;;;;;;;6219793;23;20022;-79
2023/05/30 02:41:00;;;;;;;9.30;5.53;;;;;;;;;;6246579;23;20001;-79
2023/05/30 02:43:26;;;;;;;9.90;5.28;;;;;;;;;;6246658;23;20095;-79
2023/05/30 02:45:52;;;;;;;8.43;5.28;;;;;;;;;;6246240;22;20446;-79
2023/05/30 02:48:20;;;;;;;10.15;5.30;;;;;;;;;;6246511;23;20015;-79
2023/05/30 02:50:46;;;;;;;6.63;4.95;;;;;;;;;;6246328;23;20004;-79
2023/05/30 02:53:12;;;;;;;9.82;5.65;;;;;;;;;;6246480;23;20065;-80
2023/05/30 02:55:42;;;;;;;7.45;5.13;;;;;;;;;;6246485;23;20080;-79
2023/05/30 02:58:08;;;;;;;10.20;5.82;;;;;;;;;;6246567;23;20008;-79
2023/05/30 03:00:35;;;;;;;10.27;5.32;;;;;;;;;;6246697;23;20004;-80
2023/05/30 03:03:01;;;;;;;11.60;5.30;;;;;;;;;;6245881;23;20008;-79
2023/05/30 03:05:28;;;;;;;10.93;5.43;;;;;;;;;;6246412;23;20389;-82
2023/05/30 03:07:54;;;;;;;7.28;5.30;;;;;;;;;;6246510;23;20004;-80
2023/05/30 03:10:21;;;;;;;11.30;5.25;;;;;;;;;;6246759;23;20011;-80
2023/05/30 03:12:47;;;;;;;9.18;5.22;;;;;;;;;;6246088;23;20004;-79
2023/05/30 03:15:13;;;;;;;11.10;5.45;;;;;;;;;;6246128;23;20042;-78
2023/05/30 03:17:39;;;;;;;7.32;5.40;;;;;;;;;;6245621;23;20004;-78
2023/05/30 03:20:06;;;;;;;9.18;5.32;;;;;;;;;;6245988;23;20004;-79
2023/05/30 03:22:34;;;;;;;7.68;5.60;;;;;;;;;;6246153;23;20004;-79
2023/05/30 03:25:00;;;;;;;9.02;5.80;;;;;;;;;;6246276;23;20300;-79
2023/05/30 03:27:26;;;;;;;11.52;5.70;;;;;;;;;;6245886;23;19996;-78
2023/05/30 03:29:52;;;;;;;9.65;6.05;;;;;;;;;;6246311;23;20068;-78
2023/05/30 03:32:18;;;;;;;9.00;5.97;;;;;;;;;;6246335;23;20083;-78
2023/05/30 03:34:47;;;;;;;9.38;5.82;;;;;;;;;;6246250;23;20058;-78
2023/05/30 03:37:13;;;;;;;10.48;6.22;;;;;;;;;;6219107;23;20004;-78
2023/05/30 03:39:40;;;;;;;8.75;5.95;;;;;;;;;;6245823;23;20065;-74
2023/05/30 03:42:06;;;;;;;8.80;6.07;;;;;;;;;;6245857;23;19996;-73
2023/05/30 03:44:32;;;;;;;11.98;5.50;;;;;;;;;;6245677;23;20287;-74
2023/05/30 03:46:58;;;;;;;8.52;5.78;;;;;;;;;;6245447;22;20078;-74
2023/05/30 03:49:25;;;;;;;8.98;6.25;;;;;;;;;;6245290;23;20007;-73
2023/05/30 03:51:51;;;;;;;11.48;5.97;;;;;;;;;;6245643;23;20027;-74
2023/05/30 03:54:17;;;;;;;10.18;6.32;;;;;;;;;;6245196;23;20055;-73
2023/05/30 03:56:43;;;;;;;11.27;6.40;;;;;;;;;;6245576;23;20010;-74
2023/05/30 03:59:09;;;;;;;9.18;7.40;;;;;;;;;;6245683;23;20039;-74
2023/05/30 04:01:36;;;;;;;11.35;6.70;;;;;;;;;;6246003;23;20442;-74
2023/05/30 04:04:02;;;;;;;13.50;6.15;;;;;;;;;;6245388;23;19996;-74
2023/05/30 04:06:29;;;;;;;10.20;6.97;;;;;;;;;;6218795;23;20419;-74
2023/05/30 04:08:55;;;;;;;11.18;5.88;;;;;;;;;;6245127;23;20446;-74
2023/05/30 04:11:22;;;;;;;10.32;6.10;;;;;;;;;;6244815;23;20004;-74
2023/05/30 04:13:48;;;;;;;19.33;7.13;;;;;;;;;;6244971;23;19996;-73
2023/05/30 04:16:14;;;;;;;15.18;6.60;;;;;;;;;;6245488;23;20414;-74
2023/05/30 04:18:43;;;;;;;8.75;6.45;;;;;;;;;;6218287;23;20434;-73
2023/05/30 04:21:11;;;;;;;10.52;6.68;;;;;;;;;;6245277;23;20023;-73
2023/05/30 04:23:39;;;;;;;15.38;6.20;;;;;;;;;;6245184;23;20004;-75
2023/05/30 04:26:06;;;;;;;13.32;7.18;;;;;;;;;;6245489;23;20023;-74
2023/05/30 04:28:36;;;;;;;10.82;5.80;;;;;;;;;;6218413;23;20008;-74
2023/05/30 04:31:04;;;;;;;12.63;5.72;;;;;;;;;;6245551;23;20010;-74
2023/05/30 04:33:34;;;;;;;12.70;6.03;;;;;;;;;;6245604;23;20000;-74
2023/05/30 04:36:02;;;;;;;11.98;6.00;;;;;;;;;;6245564;23;20000;-74
2023/05/30 04:38:28;;;;;;;11.13;5.43;;;;;;;;;;6245009;23;20034;-75
2023/05/30 04:40:54;;;;;;;10.00;5.90;;;;;;;;;;6245471;23;20003;-74
2023/05/30 04:43:20;;;;;;;11.70;5.88;;;;;;;;;;6245253;23;20488;-74
2023/05/30 04:45:49;;;;;;;6.82;5.20;;;;;;;;;;6245194;22;20035;-74
2023/05/30 04:48:15;;;;;;;10.93;5.97;;;;;;;;;;6245041;23;20068;-74
2023/05/30 04:50:46;;;;;;;10.75;6.05;;;;;;;;;;6245217;23;20000;-74
2023/05/30 04:53:13;;;;;;;10.70;5.95;;;;;;;;;;6218429;23;20012;-74
2023/05/30 04:55:39;;;;;;;9.82;5.93;;;;;;;;;;6245251;23;20008;-75
2023/05/30 04:58:05;;;;;;;13.10;6.05;;;;;;;;;;6245001;23;20387;-74
2023/05/30 05:00:32;;;;;;;9.35;5.47;;;;;;;;;;6245382;23;20007;-74
2023/05/30 05:02:58;;;;;;;14.63;6.57;;;;;;;;;;6245428;23;20020;-74
2023/05/30 05:05:24;;;;;;;11.73;6.03;;;;;;;;;;6218583;23;20004;-74
2023/05/30 05:07:50;;;;;;;19.70;5.95;;;;;;;;;;6244775;23;20008;-74
2023/05/30 05:10:17;;;;;;;14.88;6.00;;;;;;;;;;6244419;23;20027;-74
2023/05/30 05:12:43;;;;;;;13.60;6.40;;;;;;;;;;6244483;23;20050;-74
2023/05/30 05:15:09;;;;;;;12.57;6.18;;;;;;;;;;6244785;23;20018;-75
2023/05/30 05:17:36;;;;;;;11.57;6.00;;;;;;;;;;6244947;23;20015;-74
2023/05/30 05:20:05;;;;;;;9.73;5.90;;;;;;;;;;6244736;23;20443;-74
2023/05/30 05:22:31;;;;;;;9.82;6.18;;;;;;;;;;6244914;23;20004;-74
2023/05/30 05:24:57;;;;;;;15.43;6.03;;;;;;;;;;6244461;23;20439;-76
2023/05/30 05:27:24;;;;;;;11.52;5.97;;;;;;;;;;6244959;23;20003;-74
2023/05/30 05:29:50;;;;;;;10.75;6.03;;;;;;;;;;6244603;23;20026;-76
2023/05/30 05:32:16;;;;;;;9.88;5.72;;;;;;;;;;6217829;23;20016;-74
2023/05/30 05:34:42;;;;;;;12.65;6.13;;;;;;;;;;6244431;23;20000;-74
2023/05/30 05:37:08;;;;;;;13.13;5.32;;;;;;;;;;6244801;23;20366;-74
2023/05/30 05:39:35;;;;;;;14.60;5.45;;;;;;;;;;6244543;23;20012;-74
2023/05/30 05:42:04;;;;;;;11.40;5.45;;;;;;;;;;6244518;23;20011;-74
2023/05/30 05:44:30;;;;;;;9.18;5.88;;;;;;;;;;6244831;23;20000;-74
2023/05/30 05:46:56;;;;;;;9.02;5.35;;;;;;;;;;6244320;22;20027;-75
2023/05/30 05:49:22;;;;;;;11.27;5.18;;;;;;;;;;6244911;23;20035;-74
2023/05/30 05:51:49;;;;;;;11.98;5.28;;;;;;;;;;6246650;23;20612;-74
2023/05/30 05:54:16;;;;;;;10.85;5.15;;;;;;;;;;6246599;23;20000;-74
2023/05/30 05:56:43;;;;;;;8.95;4.75;;;;;;;;;;6246503;23;20331;-74
2023/05/30 05:59:09;;;;;;;10.63;5.47;;;;;;;;;;6246249;23;20385;-74
2023/05/30 06:01:36;;;;;;;10.63;5.35;;;;;;;;;;6219703;23;20034;-75
2023/05/30 06:04:09;;;;;;;13.00;5.25;;;;;;;;;;6219586;23;20004;-73
2023/05/30 06:06:35;;;;;;;12.93;5.55;;;;;;;;;;6246715;23;20003;-73
2023/05/30 06:09:01;;;;;;;8.65;4.97;;;;;;;;;;6246669;23;20005;-73
2023/05/30 06:11:27;;;;;;;12.75;4.75;;;;;;;;;;6246128;23;20480;-74
2023/05/30 06:13:53;;;;;;;8.18;4.90;;;;;;;;;;6218843;23;20378;-74
2023/05/30 06:16:19;;;;;;;9.68;5.10;;;;;;;;;;6245992;23;19997;-74
2023/05/30 06:18:45;;;;;;;12.52;5.65;;;;;;;;;;6245780;23;20050;-74
2023/05/30 06:21:12;;;;;;;10.63;5.47;;;;;;;;;;6246164;23;20000;-74
2023/05/30 06:23:38;;;;;;;11.60;5.60;;;;;;;;;;6246098;23;20335;-73
2023/05/30 06:26:04;;;;;;;8.25;4.90;;;;;;;;;;6245821;23;20007;-75
2023/05/30 06:28:30;;;;;;;7.93;5.40;;;;;;;;;;6246123;23;20419;-74
2023/05/30 06:30:56;;;;;;;11.50;4.90;;;;;;;;;;6219657;23;20451;-75
2023/05/30 06:33:22;;;;;;;11.13;5.72;;;;;;;;;;6246103;23;20004;-74
2023/05/30 06:35:49;;;;;;;11.75;5.30;;;;;;;;;;6218928;23;20005;-74
2023/05/30 06:38:19;;;;;;;13.75;5.63;;;;;;;;;;6245567;23;20418;-74
2023/05/30 06:40:45;;;;;;;9.82;5.32;;;;;;;;;;6246704;23;20082;-74
2023/05/30 06:43:11;;;;;;;11.70;5.57;;;;;;;;;;6246797;23;19996;-74
2023/05/30 06:45:37;;;;;;;12.02;6.03;;;;;;;;;;6245656;22;20043;-75
2023/05/30 06:48:03;;;;;;;8.70;5.20;;;;;;;;;;6246253;23;20054;-75
2023/05/30 06:50:30;;;;;;;12.35;5.57;;;;;;;;;;6245987;23;19996;-74
2023/05/30 06:52:56;;;;;;;12.43;4.95;;;;;;;;;;6246245;23;20376;-74
2023/05/30 06:55:22;;;;;;;8.50;5.13;;;;;;;;;;6246255;23;20010;-74
2023/05/30 06:57:53;;;;;;;7.90;5.40;;;;;;;;;;6241962;23;20304;-74
2023/05/30 07:00:20;;;;;;;12.00;5.35;;;;;;;;;;6242859;23;20020;-74
2023/05/30 07:02:46;;;;;;;9.55;5.40;;;;;;;;;;6245345;23;20032;-74
2023/05/30 07:05:12;;;;;;;13.05;5.10;;;;;;;;;;6219157;23;20004;-74
2023/05/30 07:07:39;;;;;;;11.40;5.20;;;;;;;;;;6245829;23;20003;-74
2023/05/30 07:10:07;;;;;;;12.50;5.10;;;;;;;;;;6245417;23;20415;-75
2023/05/30 07:12:33;;;;;;;7.97;4.65;;;;;;;;;;6245470;23;20086;-74
2023/05/30 07:14:59;;;;;;;8.30;4.80;;;;;;;;;;6245790;23;20063;-74
2023/05/30 07:17:25;;;;;;;16.60;5.00;;;;;;;;;;6245545;23;20001;-74
2023/05/30 07:19:51;;;;;;;12.40;5.10;;;;;;;;;;6244888;23;20012;-74
2023/05/30 07:22:17;;;;;;;8.32;4.68;;;;;;;;;;6245174;23;20496;-74
2023/05/30 07:24:44;;;;;;;13.00;5.32;;;;;;;;;;6244217;23;20053;-74
2023/05/30 07:27:10;;;;;;;11.45;5.53;;;;;;;;;;6244840;23;20069;-74
2023/05/30 07:29:37;;;;;;;13.02;5.30;;;;;;;;;;6244098;23;20000;-74
2023/05/30 07:32:03;;;;;;;11.45;5.22;;;;;;;;;;6218089;23;20008;-74
2023/05/30 07:34:29;;;;;;;9.32;5.00;;;;;;;;;;6245468;23;20330;-74
2023/05/30 07:36:55;;;;;;;12.00;5.05;;;;;;;;;;6244410;23;20435;-74
2023/05/30 07:39:21;;;;;;;14.25;5.80;;;;;;;;;;6245069;23;20012;-74
2023/05/30 07:41:47;;;;;;;7.45;4.72;;;;;;;;;;6244265;23;20000;-74
2023/05/30 07:44:14;;;;;;;9.00;4.75;;;;;;;;;;6245004;23;20008;-74
2023/05/30 07:46:40;;;;;;;12.32;4.97;;;;;;;;;;6286701;22;20011;-72
2023/05/30 07:49:06;;;;;;;9.30;4.82;;;;;;;;;;6307661;22;20006;-73
2023/05/30 07:55:19;;;;;;;7.88;4.32;;;;;;;;;;6307040;22;20014;-73
2023/05/30 07:58:34;;;;;;;7.70;5.05;;;;;;;;;;6181442;23;20465;-74
2023/05/30 08:01:39;;;;;;;7.03;4.32;;;;;;;;;;6197951;23;20374;-74
2023/05/30 08:31:34;;;;;;;7.90;4.55;;;;;;;;;;6297217;22;20066;-72
2023/05/30 08:34:05;;;;;;;8.52;4.38;;;;;;;;;;6306280;22;20014;-70
2023/05/30 08:36:32;;;;;;;10.45;4.72;;;;;;;;;;6305213;22;20041;-74
2023/05/30 08:38:58;;;;;;;8.88;4.72;;;;;;;;;;6305825;22;20038;-72
2023/05/30 08:41:25;;;;;;;8.65;5.22;;;;;;;;;;6305833;22;20097;-73
2023/05/30 08:43:51;;;;;;;7.63;4.63;;;;;;;;;;6306311;22;20003;-73
2023/05/30 08:46:18;;;;;;;11.95;4.95;;;;;;;;;;6306666;22;20002;-71
2023/05/30 08:48:45;;;;;;;8.40;4.88;;;;;;;;;;6306718;22;20322;-73
2023/05/30 08:51:17;;;;;;;7.63;4.32;;;;;;;;;;6306235;22;20298;-75
2023/05/30 08:53:46;;;;;;;7.18;4.20;;;;;;;;;;6306605;22;19999;-73
2023/05/30 08:56:14;;;;;;;8.48;4.53;;;;;;;;;;6306475;22;19999;-73
2023/05/30 08:58:42;;;;;;;11.82;4.70;;;;;;;;;;6305332;22;20011;-72
2023/05/30 09:01:10;;;;;;;8.93;3.95;;;;;;;;;;6306840;22;19999;-74
2023/05/30 09:03:36;;;;;;;8.48;4.55;;;;;;;;;;6306314;22;20325;-72
2023/05/30 09:06:02;;;;;;;10.07;4.13;;;;;;;;;;6305869;22;20010;-74
2023/05/30 09:08:28;;;;;;;12.05;5.07;;;;;;;;;;6306842;22;19999;-72
2023/05/30 09:10:54;;;;;;;6.30;4.65;;;;;;;;;;6306715;22;20393;-72
2023/05/30 09:13:21;;;;;;;10.90;4.82;;;;;;;;;;6306136;22;20302;-72
2023/05/30 09:15:47;;;;;;;8.98;4.65;;;;;;;;;;6304209;22;20027;-73
2023/05/30 09:18:14;;;;;;;9.93;4.47;;;;;;;;;;6305269;22;20020;-73
2023/05/30 09:20:40;;;;;;;9.82;4.22;;;;;;;;;;6305058;22;20011;-74
2023/05/30 09:23:10;;;;;;;6.75;4.60;;;;;;;;;;6306170;22;19999;-76
2023/05/30 09:25:43;;;;;;;13.55;5.18;;;;;;;;;;6279193;22;20096;-76
2023/05/30 09:28:09;;;;;;;12.60;4.20;;;;;;;;;;6308146;22;20076;-77
2023/05/30 09:30:35;;;;;;;8.05;4.30;;;;;;;;;;6281204;22;20033;-75
2023/05/30 09:33:02;;;;;;;8.10;4.50;;;;;;;;;;6308428;22;20306;-76
2023/05/30 09:35:28;;;;;;;12.38;4.72;;;;;;;;;;6308699;22;20177;-77
2023/05/30 09:37:54;;;;;;;13.30;4.38;;;;;;;;;;6280696;22;20080;-73
2023/05/30 09:40:20;;;;;;;7.55;4.47;;;;;;;;;;6308624;22;19999;-76
2023/05/30 09:42:47;;;;;;;10.52;4.53;;;;;;;;;;6308082;22;19995;-75
2023/05/30 09:45:15;;;;;;;7.30;4.22;;;;;;;;;;6308217;22;20453;-74
2023/05/30 09:47:45;;;;;;;7.10;4.10;;;;;;;;;;6280749;22;20027;-75
2023/05/30 09:50:12;;;;;;;8.65;4.43;;;;;;;;;;6307282;22;20087;-76
2023/05/30 09:52:38;;;;;;;9.75;4.72;;;;;;;;;;6307423;22;20049;-77
2023/05/30 09:55:06;;;;;;;6.78;4.20;;;;;;;;;;6307837;22;20432;-76
2023/05/30 09:57:35;;;;;;;8.65;4.75;;;;;;;;;;6308541;22;20007;-75
2023/05/30 10:00:12;;;;;;;5.97;4.30;;;;;;;;;;6308792;22;20383;-75
2023/05/30 10:02:42;;;;;;;6.25;4.25;;;;;;;;;;6308444;22;19995;-76
2023/05/30 10:05:21;;;;;;;11.07;4.57;;;;;;;;;;6308541;22;20412;-77
2023/05/30 10:07:47;;;;;;;9.65;4.50;;;;;;;;;;6308589;22;20022;-76
2023/05/30 10:10:14;;;;;;;9.82;4.10;;;;;;;;;;6308429;22;19999;-78
2023/05/30 10:12:42;;;;;;;12.77;4.75;;;;;;;;;;6308431;22;19995;-75
2023/05/30 10:15:09;;;;;;;10.13;4.85;;;;;;;;;;6308351;22;20459;-76
2023/05/30 10:17:36;;;;;;;8.35;4.13;;;;;;;;;;6308549;22;20003;-77
2023/05/30 10:20:06;;;;;;;13.93;4.32;;;;;;;;;;6308036;22;20060;-75
2023/05/30 10:22:38;;;;;;;9.90;4.40;;;;;;;;;;6308433;22;20002;-76
2023/05/30 10:25:05;;;;;;;6.53;4.25;;;;;;;;;;6308511;22;20003;-76
2023/05/30 10:27:37;;;;;;;8.48;4.63;;;;;;;;;;6308615;22;20007;-74
2023/05/30 10:30:03;;;;;;;;;;;;;;;;;;6308738;22;20018;-76
2023/05/30 10:32:31;;;;;;;5.57;4.28;;;;;;;;;;6308421;22;19902;-75
2023/05/30 10:35:04;;;;;;;6.10;4.55;;;;;;;;;;6307544;22;20003;-75
2023/05/30 10:37:31;;;;;;;12.13;4.70;;;;;;;;;;6307989;22;20317;-77
2023/05/30 10:40:00;;;;;;;21.20;5.07;;;;;;;;;;6279724;22;20016;-74
2023/05/30 10:42:29;;;;;;;8.27;4.32;;;;;;;;;;6306939;22;19996;-76
2023/05/30 10:44:58;;;;;;;13.00;4.93;;;;;;;;;;6307901;22;20485;-76
2023/05/30 10:47:30;;;;;;;13.13;5.47;;;;;;;;;;6308140;22;20003;-75
2023/05/30 10:49:56;;;;;;;;;;;;;;;;;;6307907;22;20050;-75
2023/05/30 10:52:41;;;;;;;9.40;4.60;;;;;;;;;;6306713;22;19903;-75
2023/05/30 10:55:08;;;;;;;8.25;4.20;;;;;;;;;;6307796;22;20004;-77
2023/05/30 10:57:34;;;;;;;8.73;4.43;;;;;;;;;;6280314;22;20010;-80
2023/05/30 11:00:10;;;;;;;6.43;4.30;;;;;;;;;;6307540;22;20018;-77
2023/05/30 11:02:37;;;;;;;11.05;4.35;;;;;;;;;;6307736;22;20048;-78
2023/05/30 11:05:07;;;;;;;7.85;4.07;;;;;;;;;;6308211;22;20015;-78
2023/05/30 11:07:35;;;;;;;8.02;4.47;;;;;;;;;;6307850;22;19996;-78
2023/05/30 11:10:02;;;;;;;11.65;4.65;;;;;;;;;;6307922;22;20078;-78
2023/05/30 11:12:28;;;;;;;16.88;4.43;;;;;;;;;;6307917;22;20026;-77
2023/05/30 11:14:58;;;;;;;8.40;4.80;;;;;;;;;;6307843;22;20000;-78
2023/05/30 11:17:34;;;;;;;14.10;4.63;;;;;;;;;;6307507;22;19999;-77
2023/05/30 11:20:07;;;;;;;9.43;4.68;;;;;;;;;;6306730;22;20156;-77
2023/05/30 11:22:33;;;;;;;10.63;4.65;;;;;;;;;;6306949;22;20417;-76
2023/05/30 11:25:19;;;;;;;10.73;5.22;;;;;;;;;;6307423;22;20023;-77
2023/05/30 11:28:03;;;;;;;10.30;4.75;;;;;;;;;;6307452;22;20011;-77
2023/05/30 11:30:39;;;;;;;10.57;4.80;;;;;;;;;;6307074;22;20007;-77
2023/05/30 11:33:15;;;;;;;8.82;4.15;;;;;;;;;;6307426;22;20034;-77
2023/05/30 11:35:48;;;;;;;9.73;4.20;;;;;;;;;;6307557;22;20441;-77
2023/05/30 11:38:18;;;;;;;9.85;4.20;;;;;;;;;;6307491;22;20082;-77
2023/05/30 11:40:44;;;;;;;6.78;4.28;;;;;;;;;;6308107;22;20010;-77
2023/05/30 11:43:11;;;;;;;10.88;4.63;;;;;;;;;;6307782;22;19999;-78
2023/05/30 11:45:37;;;;;;;10.55;4.57;;;;;;;;;;6307739;22;20011;-76
2023/05/30 11:48:06;;;;;;;7.78;4.53;;;;;;;;;;6307819;22;19999;-77
2023/05/30 11:50:42;;;;;;;12.05;4.70;;;;;;;;;;6307997;22;20031;-77
2023/05/30 11:53:14;;;;;;;9.32;4.32;;;;;;;;;;6280290;22;20074;-77
2023/05/30 11:55:44;;;;;;;13.20;4.80;;;;;;;;;;6307116;22;20007;-76
2023/05/30 11:58:11;;;;;;;12.18;4.38;;;;;;;;;;6306659;22;20007;-78
2023/05/30 12:00:39;;;;;;;11.27;4.50;;;;;;;;;;6303711;22;20007;-78
2023/05/30 12:03:05;;;;;;;14.40;4.20;;;;;;;;;;6303330;22;19999;-79
2023/05/30 12:05:32;;;;;;;13.65;4.85;;;;;;;;;;6305114;22;20004;-79
2023/05/30 12:07:58;;;;;;;10.75;4.68;;;;;;;;;;6306657;22;19999;-79
2023/05/30 12:10:30;;;;;;;6.85;4.15;;;;;;;;;;6307114;22;20003;-79
2023/05/30 12:12:56;;;;;;;14.13;4.28;;;;;;;;;;6307127;22;20003;-78
2023/05/30 12:15:22;;;;;;;12.95;4.30;;;;;;;;;;6279302;22;20010;-79
2023/05/30 12:17:50;;;;;;;15.70;5.20;;;;;;;;;;6306861;22;19999;-78
2023/05/30 12:20:17;;;;;;;9.65;4.75;;;;;;;;;;6279833;22;20018;-79
2023/05/30 12:22:46;;;;;;;9.23;4.20;;;;;;;;;;6306547;22;20009;-79
2023/05/30 12:25:13;;;;;;;15.63;4.43;;;;;;;;;;6306771;22;20070;-79
2023/05/30 12:27:43;;;;;;;8.77;4.60;;;;;;;;;;6306880;22;20421;-79
2023/05/30 12:30:32;;;;;;;11.13;4.63;;;;;;;;;;6305990;22;20011;-79
2023/05/30 12:32:58;;;;;;;10.75;4.53;;;;;;;;;;6307008;22;19995;-78
2023/05/30 12:35:25;;;;;;;6.28;3.83;;;;;;;;;;6306863;22;20091;-77
2023/05/30 12:37:55;;;;;;;10.48;4.53;;;;;;;;;;6306034;22;20048;-78
2023/05/30 12:40:25;;;;;;;9.50;3.92;;;;;;;;;;6306372;22;20011;-80
2023/05/30 12:42:56;;;;;;;9.40;4.53;;;;;;;;;;6306506;22;19995;-78
2023/05/30 12:45:22;;;;;;;7.63;4.43;;;;;;;;;;6306186;22;20421;-77
2023/05/30 12:47:48;;;;;;;8.32;4.50;;;;;;;;;;6306309;22;20025;-77
2023/05/30 12:50:14;;;;;;;8.48;4.13;;;;;;;;;;6302957;22;20003;-76
2023/05/30 12:52:40;;;;;;;9.45;4.20;;;;;;;;;;6275255;22;20034;-78
2023/05/30 12:55:07;;;;;;;12.40;4.60;;;;;;;;;;6306567;22;20006;-77
2023/05/30 12:57:33;;;;;;;14.00;4.38;;;;;;;;;;6306926;22;20448;-79
2023/05/30 12:59:59;;;;;;;10.38;4.80;;;;;;;;;;6306530;22;20007;-77
2023/05/30 13:02:25;;;;;;;11.18;4.40;;;;;;;;;;6308784;22;20006;-77
2023/05/30 13:04:52;;;;;;;8.93;4.63;;;;;;;;;;6309024;22;20026;-74
2023/05/30 13:07:18;;;;;;;6.82;4.53;;;;;;;;;;6308894;22;20000;-77
2023/05/30 13:09:44;;;;;;;9.07;4.88;;;;;;;;;;6309144;22;20007;-77
2023/05/30 13:12:10;;;;;;;8.05;4.05;;;;;;;;;;6281648;22;20625;-78
2023/05/30 13:14:37;;;;;;;10.98;4.32;;;;;;;;;;6281284;22;20007;-77
2023/05/30 13:17:04;;;;;;;12.88;4.32;;;;;;;;;;6309078;22;20535;-77
2023/05/30 13:19:31;;;;;;;13.15;5.45;;;;;;;;;;6308535;22;20007;-77
2023/05/30 13:21:57;;;;;;;9.70;4.72;;;;;;;;;;6308658;22;20006;-76
2023/05/30 13:24:23;;;;;;;9.70;4.75;;;;;;;;;;6308553;22;20445;-74
2023/05/30 13:26:49;;;;;;;11.45;5.15;;;;;;;;;;6308777;22;20006;-74
2023/05/30 13:29:15;;;;;;;10.50;4.40;;;;;;;;;;6308779;22;20003;-74
2023/05/30 13:31:41;;;;;;;10.40;5.22;;;;;;;;;;6308524;22;20004;-74
2023/05/30 13:34:07;;;;;;;19.98;5.03;;;;;;;;;;6309056;22;20440;-74
2023/05/30 13:36:33;;;;;;;6.60;4.38;;;;;;;;;;6309021;22;20002;-75
2023/05/30 13:39:00;;;;;;;10.30;5.03;;;;;;;;;;6308821;22;20091;-74
2023/05/30 13:41:26;;;;;;;10.38;4.57;;;;;;;;;;6308711;22;20019;-75
2023/05/30 13:43:52;;;;;;;7.05;4.05;;;;;;;;;;6308785;22;20006;-73
2023/05/30 13:46:18;;;;;;;7.20;4.43;;;;;;;;;;6281307;22;20424;-71
2023/05/30 13:48:45;;;;;;;5.57;4.05;;;;;;;;;;6308823;22;20041;-77
2023/05/30 13:51:11;;;;;;;6.88;4.22;;;;;;;;;;6308644;22;20002;-73
2023/05/30 13:53:37;;;;;;;13.90;4.53;;;;;;;;;;6308568;22;19999;-79
2023/05/30 13:56:04;;;;;;;9.93;4.57;;;;;;;;;;6308707;22;20030;-80
2023/05/30 13:58:30;;;;;;;6.15;4.55;;;;;;;;;;6308435;22;20007;-80
2023/05/30 14:00:56;;;;;;;9.43;4.60;;;;;;;;;;6280692;22;20069;-80
2023/05/30 14:03:22;;;;;;;9.50;4.53;;;;;;;;;;6308988;22;19995;-81
2023/05/30 14:05:49;;;;;;;9.63;4.43;;;;;;;;;;6308666;22;20003;-82
2023/05/30 14:08:15;;;;;;;18.33;4.95;;;;;;;;;;6309054;22;20313;-74
2023/05/30 14:10:42;;;;;;;11.63;4.72;;;;;;;;;;6308194;22;20074;-78
2023/05/30 14:13:08;;;;;;;9.50;4.32;;;;;;;;;;6308278;22;20400;-78
2023/05/30 14:15:34;;;;;;;8.80;4.70;;;;;;;;;;6308394;22;20078;-78
2023/05/30 14:18:01;;;;;;;104.13;29.38;;;27.10;41.10;;;;;;6308716;22;20003;-77
2023/05/30 14:20:27;;;;;;;20.98;8.27;;;27.10;43.80;;;;;;6308440;22;20056;-85
2023/05/30 14:24:09;;;;;;;8.82;5.10;;;27.10;45.40;;;;;;5131228;27;20118;-75
2023/05/30 14:26:35;;;;;;;11.93;4.35;;;27.10;44.70;;;;;;5112709;28;20031;-77
2023/05/30 14:29:03;;;;;;;13.35;4.47;;;27.10;44.50;;;;;;5112779;28;20467;-80
2023/05/30 14:31:29;;;;;;;10.93;4.38;;;27.10;44.80;;;;;;5130722;28;20027;-74
2023/05/30 14:33:55;;;;;;;14.52;4.80;;;27.10;44.30;;;;;;5130792;28;20386;-74
2023/05/30 14:36:21;;;;;;;10.32;4.57;;;27.10;43.70;;;;;;5130927;28;20437;-73
2023/05/30 14:38:47;;;;;;;12.77;4.32;;;27.00;44.00;;;;;;5130793;28;20032;-73
2023/05/30 14:41:13;;;;;;;8.48;4.50;;;27.10;44.70;;;;;;5130752;28;20026;-73
2023/05/30 14:43:39;;;;;;;11.95;4.30;;;27.00;44.00;;;;;;5130646;28;20119;-74
2023/05/30 14:46:05;;;;;;;12.98;4.55;;;27.00;44.20;;;;;;5130595;28;20027;-72
2023/05/30 14:48:31;;;;;;;9.32;4.72;;;27.00;43.80;;;;;;5130358;28;20088;-73
2023/05/30 14:50:56;;;;;;;11.35;4.47;;;27.00;43.60;;;;;;5130730;28;20024;-71
2023/05/30 14:53:22;;;;;;;12.70;3.95;;;26.90;43.60;;;;;;5130434;28;20428;-73
2023/05/30 14:55:48;;;;;;;9.60;4.50;;;26.90;44.40;;;;;;5130429;28;20094;-76
2023/05/30 14:58:14;;;;;;;14.15;4.35;;;26.90;44.50;;;;;;5130419;28;20379;-75
2023/05/30 15:00:39;;;;;;;9.65;5.13;;;26.90;44.10;;;;;;5130361;28;20023;-74
2023/05/30 15:03:05;;;;;;;13.55;4.03;;;26.90;44.20;;;;;;5130274;28;20036;-75
2023/05/30 15:05:31;;;;;;;14.15;4.10;;;26.80;44.40;;;;;;5130529;28;20019;-74